PWSweather.com
Personal Weather Stations
Station Observations
WEERALK
AlkmaarNL 1827 PE

AlkmaarNL 1827 PE

Lat: 52.6712679, Lon: 4.7682444

Elevation: 7

Station Type: Davis Vantage Pro2

Latest ConditionsUpdated 2:07:00 AM GMT+01:01 Saturday, Sep 5, 2015
Currently Today's Max Today's Min Today's Average
Temperature 57.0°F13.9°C 57.7°F14.3°C 56.7°F13.7°C 57.0°F13.9°C
Dew Point 54.7°F12.6°C 55.4°F13.0°C 54.3°F12.4°C 54.9°F12.7°C
Winds 9.0 mph NW14.5 kmh NW 9.0 mph NW14.5 kmh NW - 6.6 mph 10.6 kmh
Wind Gusts 20.0 mph32.2 kmh 20.0 mph32.2 kmh - -
Humidity 92% 93% 91% 93%
Pressure 29.92 in1013.2 mb 29.92 in1013.2 mb 29.90 in1012.5 mb -
Precipitation - 0.03 in0.8 mm - -
Hour Temp Dew Point Humidity Winds Wind Gusts Pressure Precip Precip Rate Daily Precip Total
02:07 AM 57.0°F13.9°C 54.7°F12.6°C 92% 9.0 mph NW14.5 kmh NW 20.0 mph32.2 kmh 29.92 in1013.2 mb 0.00 in0.0 mm 0.00 in0.0 mm 0.03 in0.8 mm
02:06 AM 57.0°F13.9°C 54.7°F12.6°C 92% 9.0 mph NW14.5 kmh NW 20.0 mph32.2 kmh 29.92 in1013.2 mb 0.00 in0.0 mm 0.00 in0.0 mm 0.03 in0.8 mm
02:05 AM 57.0°F13.9°C 54.7°F12.6°C 92% 9.0 mph NW14.5 kmh NW 20.0 mph32.2 kmh 29.91 in1012.9 mb 0.00 in0.0 mm 0.00 in0.0 mm 0.03 in0.8 mm
02:04 AM 57.0°F13.9°C 54.7°F12.6°C 92% 9.0 mph NW14.5 kmh NW 20.0 mph32.2 kmh 29.92 in1013.2 mb 0.00 in0.0 mm 0.00 in0.0 mm 0.03 in0.8 mm
02:03 AM 56.8°F13.8°C 54.7°F12.6°C 92% 8.0 mph NW12.9 kmh NW 20.0 mph32.2 kmh 29.92 in1013.2 mb 0.00 in0.0 mm 0.00 in0.0 mm 0.03 in0.8 mm
02:02 AM 56.8°F13.8°C 54.7°F12.6°C 92% 8.0 mph NW12.9 kmh NW 20.0 mph32.2 kmh 29.91 in1012.9 mb 0.00 in0.0 mm 0.00 in0.0 mm 0.03 in0.8 mm
02:01 AM 56.8°F13.8°C 54.7°F12.6°C 92% 8.0 mph NW12.9 kmh NW 20.0 mph32.2 kmh 29.92 in1013.2 mb 0.00 in0.0 mm 0.00 in0.0 mm 0.03 in0.8 mm
02:00 AM 56.8°F13.8°C 54.7°F12.6°C 92% 7.0 mph NW11.3 kmh NW 16.0 mph25.7 kmh 29.91 in1012.9 mb 0.00 in0.0 mm 0.00 in0.0 mm 0.03 in0.8 mm
01:59 AM 56.8°F13.8°C 54.7°F12.6°C 92% 8.0 mph NW12.9 kmh NW 16.0 mph25.7 kmh 29.91 in1012.9 mb 0.00 in0.0 mm 0.00 in0.0 mm 0.03 in0.8 mm
01:58 AM 56.8°F13.8°C 54.7°F12.6°C 92% 7.0 mph NW11.3 kmh NW 16.0 mph25.7 kmh 29.91 in1012.9 mb 0.00 in0.0 mm 0.00 in0.0 mm 0.03 in0.8 mm
01:57 AM 56.8°F13.8°C 54.5°F12.5°C 92% 7.0 mph NW11.3 kmh NW 16.0 mph25.7 kmh 29.91 in1012.9 mb 0.00 in0.0 mm 0.00 in0.0 mm 0.03 in0.8 mm
01:56 AM 56.8°F13.8°C 54.5°F12.5°C 92% 7.0 mph NW11.3 kmh NW 16.0 mph25.7 kmh 29.91 in1012.9 mb 0.00 in0.0 mm 0.00 in0.0 mm 0.03 in0.8 mm
01:55 AM 56.8°F13.8°C 54.5°F12.5°C 92% 7.0 mph NW11.3 kmh NW 13.0 mph20.9 kmh 29.91 in1012.9 mb 0.00 in0.0 mm 0.00 in0.0 mm 0.03 in0.8 mm
01:54 AM 56.7°F13.7°C 54.3°F12.4°C 92% 8.0 mph NW12.9 kmh NW 13.0 mph20.9 kmh 29.91 in1012.9 mb 0.00 in0.0 mm 0.00 in0.0 mm 0.03 in0.8 mm
01:53 AM 56.7°F13.7°C 54.3°F12.4°C 92% 8.0 mph NW12.9 kmh NW 17.0 mph27.4 kmh 29.91 in1012.9 mb 0.00 in0.0 mm 0.00 in0.0 mm 0.03 in0.8 mm
01:52 AM 56.7°F13.7°C 54.3°F12.4°C 92% 8.0 mph NW12.9 kmh NW 17.0 mph27.4 kmh 29.91 in1012.9 mb 0.00 in0.0 mm 0.00 in0.0 mm 0.03 in0.8 mm
01:51 AM 56.7°F13.7°C 54.3°F12.4°C 92% 8.0 mph NW12.9 kmh NW 17.0 mph27.4 kmh 29.91 in1012.9 mb 0.00 in0.0 mm 0.00 in0.0 mm 0.03 in0.8 mm
01:50 AM 56.7°F13.7°C 54.3°F12.4°C 92% 8.0 mph NW12.9 kmh NW 17.0 mph27.4 kmh 29.91 in1012.9 mb 0.00 in0.0 mm 0.00 in0.0 mm 0.03 in0.8 mm
01:49 AM 56.7°F13.7°C 54.3°F12.4°C 92% 8.0 mph NW12.9 kmh NW 17.0 mph27.4 kmh 29.91 in1012.9 mb 0.00 in0.0 mm 0.00 in0.0 mm 0.03 in0.8 mm
01:48 AM 56.7°F13.7°C 54.3°F12.4°C 92% 8.0 mph NW12.9 kmh NW 17.0 mph27.4 kmh 29.91 in1012.9 mb 0.00 in0.0 mm 0.00 in0.0 mm 0.03 in0.8 mm
01:47 AM 56.7°F13.7°C 54.3°F12.4°C 92% 8.0 mph NW12.9 kmh NW 17.0 mph27.4 kmh 29.91 in1012.9 mb 0.00 in0.0 mm 0.00 in0.0 mm 0.03 in0.8 mm
01:46 AM 56.7°F13.7°C 54.3°F12.4°C 92% 7.0 mph NW11.3 kmh NW 17.0 mph27.4 kmh 29.91 in1012.9 mb 0.00 in0.0 mm 0.00 in0.0 mm 0.03 in0.8 mm
01:45 AM 56.8°F13.8°C 54.9°F12.7°C 93% 7.0 mph NW11.3 kmh NW 17.0 mph27.4 kmh 29.91 in1012.9 mb 0.00 in0.0 mm 0.00 in0.0 mm 0.03 in0.8 mm
01:44 AM 56.8°F13.8°C 54.9°F12.7°C 93% 7.0 mph NW11.3 kmh NW 17.0 mph27.4 kmh 29.91 in1012.9 mb 0.00 in0.0 mm 0.00 in0.0 mm 0.03 in0.8 mm
01:43 AM 56.8°F13.8°C 54.9°F12.7°C 93% 7.0 mph NW11.3 kmh NW 15.0 mph24.1 kmh 29.91 in1012.9 mb 0.00 in0.0 mm 0.00 in0.0 mm 0.03 in0.8 mm
01:42 AM 56.8°F13.8°C 54.9°F12.7°C 93% 7.0 mph NW11.3 kmh NW 15.0 mph24.1 kmh 29.91 in1012.9 mb 0.00 in0.0 mm 0.00 in0.0 mm 0.03 in0.8 mm
01:41 AM 56.8°F13.8°C 54.9°F12.7°C 93% 7.0 mph NW11.3 kmh NW 15.0 mph24.1 kmh 29.91 in1012.9 mb 0.00 in0.0 mm 0.00 in0.0 mm 0.03 in0.8 mm
01:40 AM 56.8°F13.8°C 54.9°F12.7°C 93% 7.0 mph NW11.3 kmh NW 15.0 mph24.1 kmh 29.91 in1012.9 mb 0.00 in0.0 mm 0.00 in0.0 mm 0.03 in0.8 mm
01:39 AM 56.8°F13.8°C 54.9°F12.7°C 93% 7.0 mph NW11.3 kmh NW 15.0 mph24.1 kmh 29.91 in1012.9 mb 0.00 in0.0 mm 0.00 in0.0 mm 0.03 in0.8 mm
01:38 AM 56.8°F13.8°C 54.9°F12.7°C 93% 7.0 mph NW11.3 kmh NW 15.0 mph24.1 kmh 29.91 in1012.9 mb 0.00 in0.0 mm 0.00 in0.0 mm 0.03 in0.8 mm
01:37 AM 56.8°F13.8°C 54.9°F12.7°C 93% 7.0 mph NW11.3 kmh NW 15.0 mph24.1 kmh 29.91 in1012.9 mb 0.00 in0.0 mm 0.00 in0.0 mm 0.03 in0.8 mm
01:36 AM 56.8°F13.8°C 54.9°F12.7°C 93% 7.0 mph NW11.3 kmh NW 15.0 mph24.1 kmh 29.91 in1012.9 mb 0.00 in0.0 mm 0.00 in0.0 mm 0.03 in0.8 mm
01:35 AM 56.8°F13.8°C 54.9°F12.7°C 93% 7.0 mph NW11.3 kmh NW 15.0 mph24.1 kmh 29.91 in1012.9 mb 0.00 in0.0 mm 0.00 in0.0 mm 0.03 in0.8 mm
01:34 AM 56.8°F13.8°C 54.9°F12.7°C 93% 8.0 mph NW12.9 kmh NW 15.0 mph24.1 kmh 29.91 in1012.9 mb 0.00 in0.0 mm 0.00 in0.0 mm 0.03 in0.8 mm
01:33 AM 56.8°F13.8°C 54.9°F12.7°C 93% 7.0 mph NW11.3 kmh NW 15.0 mph24.1 kmh 29.91 in1012.9 mb 0.00 in0.0 mm 0.00 in0.0 mm 0.03 in0.8 mm
01:32 AM 56.8°F13.8°C 54.9°F12.7°C 93% 7.0 mph NW11.3 kmh NW 15.0 mph24.1 kmh 29.91 in1012.9 mb 0.00 in0.0 mm 0.00 in0.0 mm 0.03 in0.8 mm
01:31 AM 56.8°F13.8°C 54.9°F12.7°C 93% 7.0 mph NW11.3 kmh NW 15.0 mph24.1 kmh 29.91 in1012.9 mb 0.00 in0.0 mm 0.00 in0.0 mm 0.03 in0.8 mm
01:30 AM 56.8°F13.8°C 54.9°F12.7°C 93% 7.0 mph NW11.3 kmh NW 13.0 mph20.9 kmh 29.91 in1012.9 mb 0.00 in0.0 mm 0.00 in0.0 mm 0.03 in0.8 mm
01:29 AM 56.8°F13.8°C 54.9°F12.7°C 93% 7.0 mph NW11.3 kmh NW 12.0 mph19.3 kmh 29.91 in1012.9 mb 0.00 in0.0 mm 0.00 in0.0 mm 0.03 in0.8 mm
01:28 AM 56.8°F13.8°C 54.9°F12.7°C 93% 7.0 mph NW11.3 kmh NW 12.0 mph19.3 kmh 29.91 in1012.9 mb 0.00 in0.0 mm 0.00 in0.0 mm 0.03 in0.8 mm
01:27 AM 56.8°F13.8°C 54.9°F12.7°C 93% 7.0 mph NW11.3 kmh NW 13.0 mph20.9 kmh 29.91 in1012.9 mb 0.00 in0.0 mm 0.00 in0.0 mm 0.03 in0.8 mm
01:26 AM 56.8°F13.8°C 54.9°F12.7°C 93% 7.0 mph NW11.3 kmh NW 13.0 mph20.9 kmh 29.91 in1012.9 mb 0.00 in0.0 mm 0.00 in0.0 mm 0.03 in0.8 mm
01:25 AM 56.8°F13.8°C 54.9°F12.7°C 93% 7.0 mph NW11.3 kmh NW 13.0 mph20.9 kmh 29.91 in1012.9 mb 0.00 in0.0 mm 0.00 in0.0 mm 0.03 in0.8 mm
01:24 AM 56.8°F13.8°C 54.9°F12.7°C 93% 7.0 mph NW11.3 kmh NW 13.0 mph20.9 kmh 29.91 in1012.9 mb 0.00 in0.0 mm 0.00 in0.0 mm 0.03 in0.8 mm
01:23 AM 56.8°F13.8°C 54.9°F12.7°C 93% 7.0 mph NW11.3 kmh NW 13.0 mph20.9 kmh 29.91 in1012.9 mb 0.00 in0.0 mm 0.00 in0.0 mm 0.03 in0.8 mm
01:22 AM 56.8°F13.8°C 54.9°F12.7°C 93% 7.0 mph NW11.3 kmh NW 13.0 mph20.9 kmh 29.91 in1012.9 mb 0.00 in0.0 mm 0.00 in0.0 mm 0.03 in0.8 mm
01:21 AM 56.7°F13.7°C 54.7°F12.6°C 93% 7.0 mph NW11.3 kmh NW 13.0 mph20.9 kmh 29.91 in1012.9 mb 0.00 in0.0 mm 0.00 in0.0 mm 0.03 in0.8 mm
01:20 AM 56.8°F13.8°C 54.9°F12.7°C 93% 7.0 mph NW11.3 kmh NW 13.0 mph20.9 kmh 29.91 in1012.9 mb 0.00 in0.0 mm 0.00 in0.0 mm 0.03 in0.8 mm
01:19 AM 56.7°F13.7°C 54.7°F12.6°C 93% 7.0 mph NW11.3 kmh NW 13.0 mph20.9 kmh 29.91 in1012.9 mb 0.00 in0.0 mm 0.00 in0.0 mm 0.03 in0.8 mm
01:18 AM 56.8°F13.8°C 54.9°F12.7°C 93% 7.0 mph NW11.3 kmh NW 17.0 mph27.4 kmh 29.91 in1012.9 mb 0.00 in0.0 mm 0.00 in0.0 mm 0.03 in0.8 mm
01:17 AM 56.8°F13.8°C 54.9°F12.7°C 93% 6.0 mph NW9.7 kmh NW 17.0 mph27.4 kmh 29.91 in1012.9 mb 0.00 in0.0 mm 0.00 in0.0 mm 0.03 in0.8 mm
01:16 AM 56.8°F13.8°C 54.9°F12.7°C 93% 7.0 mph NW11.3 kmh NW 17.0 mph27.4 kmh 29.91 in1012.9 mb 0.00 in0.0 mm 0.00 in0.0 mm 0.03 in0.8 mm
01:15 AM 56.8°F13.8°C 54.9°F12.7°C 93% 6.0 mph NW9.7 kmh NW 17.0 mph27.4 kmh 29.91 in1012.9 mb 0.00 in0.0 mm 0.00 in0.0 mm 0.03 in0.8 mm
01:14 AM 56.8°F13.8°C 54.9°F12.7°C 93% 6.0 mph NW9.7 kmh NW 17.0 mph27.4 kmh 29.91 in1012.9 mb 0.00 in0.0 mm 0.00 in0.0 mm 0.03 in0.8 mm
01:13 AM 56.8°F13.8°C 54.9°F12.7°C 93% 5.0 mph NW8.0 kmh NW 17.0 mph27.4 kmh 29.91 in1012.9 mb 0.00 in0.0 mm 0.00 in0.0 mm 0.03 in0.8 mm
01:12 AM 56.8°F13.8°C 54.9°F12.7°C 93% 6.0 mph NW9.7 kmh NW 17.0 mph27.4 kmh 29.91 in1012.9 mb 0.00 in0.0 mm 0.00 in0.0 mm 0.03 in0.8 mm
01:11 AM 56.8°F13.8°C 54.9°F12.7°C 93% 6.0 mph NW9.7 kmh NW 17.0 mph27.4 kmh 29.91 in1012.9 mb 0.00 in0.0 mm 0.00 in0.0 mm 0.03 in0.8 mm
01:10 AM 56.8°F13.8°C 54.9°F12.7°C 93% 5.0 mph NW8.0 kmh NW 17.0 mph27.4 kmh 29.91 in1012.9 mb 0.00 in0.0 mm 0.00 in0.0 mm 0.03 in0.8 mm
01:09 AM 57.0°F13.9°C 55.0°F12.8°C 93% 5.0 mph NW8.0 kmh NW 17.0 mph27.4 kmh 29.91 in1012.9 mb 0.00 in0.0 mm 0.00 in0.0 mm 0.03 in0.8 mm
01:08 AM 57.0°F13.9°C 55.0°F12.8°C 93% 5.0 mph NW8.0 kmh NW 15.0 mph24.1 kmh 29.91 in1012.9 mb 0.00 in0.0 mm 0.00 in0.0 mm 0.03 in0.8 mm
01:07 AM 57.0°F13.9°C 55.0°F12.8°C 93% 5.0 mph NW8.0 kmh NW 10.0 mph16.1 kmh 29.91 in1012.9 mb 0.00 in0.0 mm 0.00 in0.0 mm 0.03 in0.8 mm
01:06 AM 57.0°F13.9°C 55.0°F12.8°C 93% 5.0 mph NW8.0 kmh NW 10.0 mph16.1 kmh 29.91 in1012.9 mb 0.00 in0.0 mm 0.00 in0.0 mm 0.03 in0.8 mm
01:05 AM 57.0°F13.9°C 55.0°F12.8°C 93% 5.0 mph NW8.0 kmh NW 10.0 mph16.1 kmh 29.91 in1012.9 mb 0.00 in0.0 mm 0.00 in0.0 mm 0.03 in0.8 mm
01:04 AM 57.0°F13.9°C 55.0°F12.8°C 93% 5.0 mph NNW8.0 kmh NNW 10.0 mph16.1 kmh 29.91 in1012.9 mb 0.00 in0.0 mm 0.00 in0.0 mm 0.03 in0.8 mm
01:03 AM 57.0°F13.9°C 55.0°F12.8°C 93% 5.0 mph NNW8.0 kmh NNW 10.0 mph16.1 kmh 29.91 in1012.9 mb 0.00 in0.0 mm 0.00 in0.0 mm 0.03 in0.8 mm
01:02 AM 57.0°F13.9°C 55.0°F12.8°C 93% 5.0 mph NNW8.0 kmh NNW 11.0 mph17.7 kmh 29.91 in1012.9 mb 0.00 in0.0 mm 0.00 in0.0 mm 0.03 in0.8 mm
01:01 AM 57.0°F13.9°C 55.0°F12.8°C 93% 5.0 mph NNW8.0 kmh NNW 11.0 mph17.7 kmh 29.91 in1012.9 mb 0.00 in0.0 mm 0.00 in0.0 mm 0.03 in0.8 mm
01:00 AM 57.0°F13.9°C 55.0°F12.8°C 93% 5.0 mph NNW8.0 kmh NNW 11.0 mph17.7 kmh 29.91 in1012.9 mb 0.00 in0.0 mm 0.00 in0.0 mm 0.03 in0.8 mm
12:59 AM 57.0°F13.9°C 55.0°F12.8°C 93% 5.0 mph NNW8.0 kmh NNW 11.0 mph17.7 kmh 29.91 in1012.9 mb 0.00 in0.0 mm 0.00 in0.0 mm 0.03 in0.8 mm
12:58 AM 57.0°F13.9°C 55.0°F12.8°C 93% 5.0 mph NNW8.0 kmh NNW 11.0 mph17.7 kmh 29.91 in1012.9 mb 0.00 in0.0 mm 0.00 in0.0 mm 0.03 in0.8 mm
12:57 AM 57.0°F13.9°C 55.0°F12.8°C 93% 4.0 mph NNW6.4 kmh NNW 11.0 mph17.7 kmh 29.91 in1012.9 mb 0.00 in0.0 mm 0.00 in0.0 mm 0.03 in0.8 mm
12:56 AM 57.0°F13.9°C 55.0°F12.8°C 93% 4.0 mph NNW6.4 kmh NNW 11.0 mph17.7 kmh 29.91 in1012.9 mb 0.00 in0.0 mm 0.00 in0.0 mm 0.03 in0.8 mm
12:55 AM 57.0°F13.9°C 55.0°F12.8°C 93% 4.0 mph NNW6.4 kmh NNW 11.0 mph17.7 kmh 29.91 in1012.9 mb 0.00 in0.0 mm 0.00 in0.0 mm 0.03 in0.8 mm
12:54 AM 57.0°F13.9°C 55.0°F12.8°C 93% 4.0 mph NNW6.4 kmh NNW 11.0 mph17.7 kmh 29.91 in1012.9 mb 0.00 in0.0 mm 0.00 in0.0 mm 0.03 in0.8 mm
12:53 AM 57.0°F13.9°C 55.0°F12.8°C 93% 5.0 mph NW8.0 kmh NW 11.0 mph17.7 kmh 29.91 in1012.9 mb 0.02 in0.5 mm 0.00 in0.0 mm 0.03 in0.8 mm
12:52 AM 57.0°F13.9°C 55.0°F12.8°C 93% 5.0 mph NW8.0 kmh NW 10.0 mph16.1 kmh 29.91 in1012.9 mb 0.02 in0.5 mm 0.00 in0.0 mm 0.03 in0.8 mm
12:51 AM 57.0°F13.9°C 55.0°F12.8°C 93% 5.0 mph NW8.0 kmh NW 10.0 mph16.1 kmh 29.91 in1012.9 mb 0.03 in0.8 mm 0.00 in0.0 mm 0.03 in0.8 mm
12:50 AM 57.0°F13.9°C 55.0°F12.8°C 93% 5.0 mph NW8.0 kmh NW 12.0 mph19.3 kmh 29.91 in1012.9 mb 0.03 in0.8 mm 0.00 in0.0 mm 0.03 in0.8 mm
12:49 AM 57.0°F13.9°C 55.0°F12.8°C 93% 6.0 mph NW9.7 kmh NW 12.0 mph19.3 kmh 29.90 in1012.5 mb 0.03 in0.8 mm 0.00 in0.0 mm 0.03 in0.8 mm
12:48 AM 57.0°F13.9°C 55.0°F12.8°C 93% 6.0 mph NW9.7 kmh NW 14.0 mph22.5 kmh 29.91 in1012.9 mb 0.03 in0.8 mm 0.00 in0.0 mm 0.03 in0.8 mm
12:47 AM 57.2°F14.0°C 55.2°F12.9°C 93% 7.0 mph NW11.3 kmh NW 15.0 mph24.1 kmh 29.91 in1012.9 mb 0.03 in0.8 mm 0.00 in0.0 mm 0.03 in0.8 mm
12:46 AM 57.0°F13.9°C 55.0°F12.8°C 93% 7.0 mph NW11.3 kmh NW 15.0 mph24.1 kmh 29.91 in1012.9 mb 0.03 in0.8 mm 0.00 in0.0 mm 0.03 in0.8 mm
12:45 AM 57.2°F14.0°C 55.2°F12.9°C 93% 8.0 mph NW12.9 kmh NW 15.0 mph24.1 kmh 29.90 in1012.5 mb 0.03 in0.8 mm 0.00 in0.0 mm 0.03 in0.8 mm
12:44 AM 57.2°F14.0°C 55.2°F12.9°C 93% 8.0 mph NW12.9 kmh NW 17.0 mph27.4 kmh 29.91 in1012.9 mb 0.03 in0.8 mm 0.00 in0.0 mm 0.03 in0.8 mm
12:43 AM 57.2°F14.0°C 55.2°F12.9°C 93% 8.0 mph NW12.9 kmh NW 17.0 mph27.4 kmh 29.91 in1012.9 mb 0.03 in0.8 mm 0.00 in0.0 mm 0.03 in0.8 mm
12:42 AM 57.2°F14.0°C 55.2°F12.9°C 93% 9.0 mph NW14.5 kmh NW 17.0 mph27.4 kmh 29.91 in1012.9 mb 0.03 in0.8 mm 0.00 in0.0 mm 0.03 in0.8 mm
12:41 AM 57.2°F14.0°C 55.2°F12.9°C 93% 9.0 mph NW14.5 kmh NW 17.0 mph27.4 kmh 29.91 in1012.9 mb 0.03 in0.8 mm 0.00 in0.0 mm 0.03 in0.8 mm
12:40 AM 57.2°F14.0°C 55.2°F12.9°C 93% 9.0 mph NW14.5 kmh NW 17.0 mph27.4 kmh 29.91 in1012.9 mb 0.03 in0.8 mm 0.00 in0.0 mm 0.03 in0.8 mm
12:39 AM 57.2°F14.0°C 55.2°F12.9°C 93% 8.0 mph NW12.9 kmh NW 17.0 mph27.4 kmh 29.91 in1012.9 mb 0.03 in0.8 mm 0.00 in0.0 mm 0.03 in0.8 mm
12:38 AM 57.2°F14.0°C 55.2°F12.9°C 93% 8.0 mph NW12.9 kmh NW 17.0 mph27.4 kmh 29.91 in1012.9 mb 0.03 in0.8 mm 0.00 in0.0 mm 0.03 in0.8 mm
12:37 AM 57.2°F14.0°C 55.2°F12.9°C 93% 8.0 mph NW12.9 kmh NW 17.0 mph27.4 kmh 29.91 in1012.9 mb 0.03 in0.8 mm 0.00 in0.0 mm 0.03 in0.8 mm
12:36 AM 57.2°F14.0°C 55.2°F12.9°C 93% 8.0 mph NW12.9 kmh NW 17.0 mph27.4 kmh 29.91 in1012.9 mb 0.03 in0.8 mm 0.00 in0.0 mm 0.03 in0.8 mm
12:35 AM 57.2°F14.0°C 55.2°F12.9°C 93% 7.0 mph NW11.3 kmh NW 17.0 mph27.4 kmh 29.91 in1012.9 mb 0.03 in0.8 mm 0.00 in0.0 mm 0.03 in0.8 mm
12:34 AM 57.0°F13.9°C 55.0°F12.8°C 93% 7.0 mph NW11.3 kmh NW 15.0 mph24.1 kmh 29.91 in1012.9 mb 0.03 in0.8 mm 0.00 in0.0 mm 0.03 in0.8 mm
12:33 AM 57.0°F13.9°C 55.0°F12.8°C 93% 7.0 mph NW11.3 kmh NW 14.0 mph22.5 kmh 29.91 in1012.9 mb 0.03 in0.8 mm 0.00 in0.0 mm 0.03 in0.8 mm
12:32 AM 57.0°F13.9°C 55.0°F12.8°C 93% 6.0 mph NW9.7 kmh NW 14.0 mph22.5 kmh 29.91 in1012.9 mb 0.03 in0.8 mm 0.00 in0.0 mm 0.03 in0.8 mm
12:31 AM 57.0°F13.9°C 55.0°F12.8°C 93% 6.0 mph NW9.7 kmh NW 14.0 mph22.5 kmh 29.90 in1012.5 mb 0.03 in0.8 mm 0.00 in0.0 mm 0.03 in0.8 mm
12:30 AM 57.0°F13.9°C 55.0°F12.8°C 93% 6.0 mph NW9.7 kmh NW 14.0 mph22.5 kmh 29.90 in1012.5 mb 0.03 in0.8 mm 0.00 in0.0 mm 0.03 in0.8 mm
12:29 AM 57.0°F13.9°C 55.0°F12.8°C 93% 6.0 mph NW9.7 kmh NW 12.0 mph19.3 kmh 29.90 in1012.5 mb 0.03 in0.8 mm 0.00 in0.0 mm 0.03 in0.8 mm
12:28 AM 57.0°F13.9°C 55.0°F12.8°C 93% 6.0 mph NW9.7 kmh NW 12.0 mph19.3 kmh 29.91 in1012.9 mb 0.03 in0.8 mm 0.00 in0.0 mm 0.03 in0.8 mm
12:27 AM 57.0°F13.9°C 55.0°F12.8°C 93% 6.0 mph NW9.7 kmh NW 9.0 mph14.5 kmh 29.90 in1012.5 mb 0.03 in0.8 mm 0.00 in0.0 mm 0.03 in0.8 mm
12:26 AM 57.0°F13.9°C 55.0°F12.8°C 93% 6.0 mph NW9.7 kmh NW 10.0 mph16.1 kmh 29.90 in1012.5 mb 0.03 in0.8 mm 0.00 in0.0 mm 0.03 in0.8 mm
12:25 AM 57.0°F13.9°C 54.9°F12.7°C 92% 5.0 mph NW8.0 kmh NW 10.0 mph16.1 kmh 29.90 in1012.5 mb 0.03 in0.8 mm 0.00 in0.0 mm 0.03 in0.8 mm
12:24 AM 57.0°F13.9°C 54.9°F12.7°C 92% 5.0 mph NW8.0 kmh NW 10.0 mph16.1 kmh 29.90 in1012.5 mb 0.03 in0.8 mm 0.00 in0.0 mm 0.03 in0.8 mm
12:23 AM 57.0°F13.9°C 54.9°F12.7°C 92% 5.0 mph NW8.0 kmh NW 10.0 mph16.1 kmh 29.90 in1012.5 mb 0.03 in0.8 mm 0.00 in0.0 mm 0.03 in0.8 mm
12:22 AM 57.0°F13.9°C 54.9°F12.7°C 92% 5.0 mph NW8.0 kmh NW 10.0 mph16.1 kmh 29.90 in1012.5 mb 0.03 in0.8 mm 0.00 in0.0 mm 0.03 in0.8 mm
12:21 AM 57.2°F14.0°C 54.9°F12.7°C 92% 5.0 mph NW8.0 kmh NW 10.0 mph16.1 kmh 29.90 in1012.5 mb 0.03 in0.8 mm 0.00 in0.0 mm 0.03 in0.8 mm
12:20 AM 57.2°F14.0°C 54.9°F12.7°C 92% 5.0 mph NW8.0 kmh NW 11.0 mph17.7 kmh 29.90 in1012.5 mb 0.03 in0.8 mm 0.00 in0.0 mm 0.03 in0.8 mm
12:19 AM 57.2°F14.0°C 54.9°F12.7°C 92% 5.0 mph NW8.0 kmh NW 11.0 mph17.7 kmh 29.90 in1012.5 mb 0.03 in0.8 mm 0.00 in0.0 mm 0.03 in0.8 mm
12:18 AM 57.2°F14.0°C 54.9°F12.7°C 92% 5.0 mph NW8.0 kmh NW 11.0 mph17.7 kmh 29.90 in1012.5 mb 0.03 in0.8 mm 0.00 in0.0 mm 0.03 in0.8 mm
12:17 AM 57.4°F14.1°C 55.0°F12.8°C 92% 5.0 mph NW8.0 kmh NW 11.0 mph17.7 kmh 29.90 in1012.5 mb 0.03 in0.8 mm 0.00 in0.0 mm 0.03 in0.8 mm
12:16 AM 57.4°F14.1°C 55.0°F12.8°C 92% 5.0 mph NW8.0 kmh NW 11.0 mph17.7 kmh 29.90 in1012.5 mb 0.03 in0.8 mm 0.00 in0.0 mm 0.03 in0.8 mm
12:15 AM 57.4°F14.1°C 55.0°F12.8°C 92% 5.0 mph NW8.0 kmh NW 11.0 mph17.7 kmh 29.90 in1012.5 mb 0.03 in0.8 mm 0.00 in0.0 mm 0.03 in0.8 mm
12:14 AM 57.4°F14.1°C 55.0°F12.8°C 92% 5.0 mph NW8.0 kmh NW 11.0 mph17.7 kmh 29.90 in1012.5 mb 0.03 in0.8 mm 0.00 in0.0 mm 0.03 in0.8 mm
12:13 AM 57.4°F14.1°C 55.0°F12.8°C 92% 5.0 mph NW8.0 kmh NW 11.0 mph17.7 kmh 29.90 in1012.5 mb 0.03 in0.8 mm 0.00 in0.0 mm 0.03 in0.8 mm
12:12 AM 57.4°F14.1°C 55.0°F12.8°C 92% 5.0 mph NW8.0 kmh NW 11.0 mph17.7 kmh 29.90 in1012.5 mb 0.03 in0.8 mm 0.00 in0.0 mm 0.03 in0.8 mm
12:11 AM 57.6°F14.2°C 55.2°F12.9°C 92% 5.0 mph NW8.0 kmh NW 11.0 mph17.7 kmh 29.90 in1012.5 mb 0.03 in0.8 mm 0.00 in0.0 mm 0.03 in0.8 mm
12:10 AM 57.6°F14.2°C 55.2°F12.9°C 92% 5.0 mph NW8.0 kmh NW 11.0 mph17.7 kmh 29.90 in1012.5 mb 0.03 in0.8 mm 0.00 in0.0 mm 0.03 in0.8 mm
12:09 AM 57.6°F14.2°C 55.2°F12.9°C 92% 5.0 mph NW8.0 kmh NW 13.0 mph20.9 kmh 29.90 in1012.5 mb 0.03 in0.8 mm 0.00 in0.0 mm 0.03 in0.8 mm
12:08 AM 57.6°F14.2°C 55.2°F12.9°C 92% 6.0 mph NW9.7 kmh NW 13.0 mph20.9 kmh 29.90 in1012.5 mb 0.03 in0.8 mm 0.00 in0.0 mm 0.03 in0.8 mm
12:07 AM 57.6°F14.2°C 55.2°F12.9°C 92% 6.0 mph NW9.7 kmh NW 13.0 mph20.9 kmh 29.90 in1012.5 mb 0.03 in0.8 mm 0.00 in0.0 mm 0.03 in0.8 mm
12:06 AM 57.6°F14.2°C 55.2°F12.9°C 92% 7.0 mph NW11.3 kmh NW 13.0 mph20.9 kmh 29.90 in1012.5 mb 0.03 in0.8 mm 0.00 in0.0 mm 0.03 in0.8 mm
12:05 AM 57.6°F14.2°C 55.2°F12.9°C 92% 7.0 mph NW11.3 kmh NW 16.0 mph25.7 kmh 29.90 in1012.5 mb 0.03 in0.8 mm 0.00 in0.0 mm 0.03 in0.8 mm
12:04 AM 57.6°F14.2°C 55.2°F12.9°C 92% 8.0 mph NW12.9 kmh NW 16.0 mph25.7 kmh 29.90 in1012.5 mb 0.03 in0.8 mm 0.00 in0.0 mm 0.03 in0.8 mm
12:03 AM 57.6°F14.2°C 55.2°F12.9°C 92% 8.0 mph NW12.9 kmh NW 16.0 mph25.7 kmh 29.90 in1012.5 mb 0.03 in0.8 mm 0.00 in0.0 mm 0.03 in0.8 mm
12:02 AM 57.6°F14.2°C 55.2°F12.9°C 92% 8.0 mph NW12.9 kmh NW 16.0 mph25.7 kmh 29.90 in1012.5 mb 0.03 in0.8 mm 0.00 in0.0 mm 0.03 in0.8 mm
12:01 AM 57.7°F14.3°C 55.4°F13.0°C 92% 9.0 mph NW14.5 kmh NW 16.0 mph25.7 kmh 29.90 in1012.5 mb 0.03 in0.8 mm 0.00 in0.0 mm 0.03 in0.8 mm
12:00 AM 57.7°F14.3°C 55.0°F12.8°C 91% 9.0 mph NW14.5 kmh NW 16.0 mph25.7 kmh 29.90 in1012.5 mb 0.03 in0.8 mm 0.00 in0.0 mm 0.03 in0.8 mm